Time;durP1;ratioP1;P1;durP2;ratioP2;P2;SDS_P1;SDS_P2;PMS_P1;PMS_P2;Temp;Humidity;BMP_temperature;BMP_pressure;BME280_temperature;BME280_humidity;BME280_pressure;Samples;Min_cycle;Max_cycle;Signal;HPM_P1;HPM_P2
2023/12/29 00:00:03;;;;;;;11.40;3.40;;;9.70;99.90;;;;;;4919607;29;20078;-79
2023/12/29 00:02:28;;;;;;;10.60;3.10;;;9.70;99.90;;;;;;4903110;29;20055;-78
2023/12/29 00:04:54;;;;;;;13.02;3.25;;;9.70;99.90;;;;;;4900409;29;20040;-79
2023/12/29 00:07:20;;;;;;;11.63;3.33;;;9.70;99.90;;;;;;4897276;29;20036;-78
2023/12/29 00:09:45;;;;;;;12.98;2.97;;;9.70;99.90;;;;;;4935396;29;20059;-78
2023/12/29 00:12:11;;;;;;;14.88;3.45;;;9.70;99.90;;;;;;4938421;29;20047;-78
2023/12/29 00:14:39;;;;;;;13.88;3.65;;;9.60;99.90;;;;;;4919145;29;20036;-78
2023/12/29 00:17:05;;;;;;;11.93;3.95;;;9.50;99.90;;;;;;4919322;29;20071;-78
2023/12/29 00:19:30;;;;;;;17.05;3.75;;;9.40;99.90;;;;;;4919686;29;20114;-79
2023/12/29 00:21:56;;;;;;;15.93;3.80;;;9.30;99.90;;;;;;4918371;29;20040;-79
2023/12/29 00:24:21;;;;;;;17.15;4.10;;;9.20;99.90;;;;;;4918671;29;20055;-78
2023/12/29 00:26:47;;;;;;;14.65;3.90;;;9.10;99.90;;;;;;4919641;29;20044;-78
2023/12/29 00:29:15;;;;;;;15.98;4.22;;;9.10;99.90;;;;;;4919250;29;20462;-78
2023/12/29 00:31:40;;;;;;;14.32;3.90;;;9.10;99.90;;;;;;4919120;29;20469;-78
2023/12/29 00:34:06;;;;;;;17.88;4.38;;;9.00;99.90;;;;;;4905936;29;20072;-79
2023/12/29 00:36:32;;;;;;;13.30;4.40;;;9.10;99.90;;;;;;4892196;29;20044;-78
2023/12/29 00:38:57;;;;;;;15.25;4.20;;;9.00;99.90;;;;;;4919993;29;20068;-79
2023/12/29 00:41:23;;;;;;;20.10;5.22;;;9.00;99.90;;;;;;4912696;29;20095;-79
2023/12/29 00:43:48;;;;;;;18.80;4.80;;;9.00;99.90;;;;;;4894905;29;20582;-78
2023/12/29 00:46:15;;;;;;;18.83;4.88;;;9.00;99.90;;;;;;4919221;29;20047;-78
2023/12/29 00:48:41;;;;;;;15.88;4.70;;;9.00;99.90;;;;;;4919118;29;20054;-78
2023/12/29 00:51:06;;;;;;;18.38;5.50;;;9.10;99.90;;;;;;4908559;29;20511;-79
2023/12/29 00:53:35;;;;;;;20.13;5.18;;;9.10;99.90;;;;;;4900780;29;20525;-79
2023/12/29 00:56:00;;;;;;;17.98;5.20;;;9.00;99.90;;;;;;4902591;29;20036;-79
2023/12/29 00:58:26;;;;;;;23.42;6.35;;;9.10;99.90;;;;;;4916728;29;20095;-79
2023/12/29 01:00:52;;;;;;;18.88;5.65;;;9.00;99.90;;;;;;4919322;29;20641;-78
2023/12/29 01:03:18;;;;;;;24.52;6.10;;;9.00;99.90;;;;;;4918148;29;20047;-79
2023/12/29 01:05:43;;;;;;;18.73;5.72;;;9.00;99.90;;;;;;4919407;29;20134;-79
2023/12/29 01:08:09;;;;;;;25.27;6.13;;;9.00;99.90;;;;;;4919164;29;20047;-79
2023/12/29 01:10:34;;;;;;;19.02;5.50;;;9.00;99.90;;;;;;4919645;29;20039;-79
2023/12/29 01:13:00;;;;;;;17.45;5.60;;;9.00;99.90;;;;;;4900193;29;20040;-79
2023/12/29 01:15:25;;;;;;;17.80;4.65;;;9.00;99.90;;;;;;4900555;29;20043;-79
2023/12/29 01:17:51;;;;;;;13.35;4.22;;;9.00;99.90;;;;;;4905646;29;20802;-79
2023/12/29 01:20:17;;;;;;;17.45;4.78;;;9.00;99.90;;;;;;4938265;29;20035;-78
2023/12/29 01:22:42;;;;;;;15.65;4.50;;;9.00;99.90;;;;;;4910398;29;20044;-79
2023/12/29 01:25:08;;;;;;;16.38;4.20;;;9.10;99.90;;;;;;4918526;29;20482;-79
2023/12/29 01:27:33;;;;;;;16.50;4.60;;;9.10;99.90;;;;;;4919028;29;20519;-79
2023/12/29 01:29:59;;;;;;;13.32;3.92;;;9.10;99.90;;;;;;4903692;29;20051;-79
2023/12/29 01:32:25;;;;;;;12.57;3.67;;;9.20;99.90;;;;;;4918765;29;20103;-79
2023/12/29 01:34:52;;;;;;;14.82;4.25;;;9.20;99.90;;;;;;4902959;29;20118;-79
2023/12/29 01:37:18;;;;;;;16.02;3.95;;;9.20;99.90;;;;;;4919203;29;20090;-78
2023/12/29 01:39:43;;;;;;;13.00;3.72;;;9.30;99.90;;;;;;4918808;29;20047;-79
2023/12/29 01:42:11;;;;;;;19.85;4.97;;;9.30;99.90;;;;;;4903186;29;20068;-79
2023/12/29 01:44:36;;;;;;;17.60;4.72;;;9.30;99.90;;;;;;4898393;29;20523;-79
2023/12/29 01:47:05;;;;;;;13.80;4.35;;;9.30;99.90;;;;;;4900206;29;20135;-78
2023/12/29 01:49:32;;;;;;;15.77;4.95;;;9.20;99.90;;;;;;4900564;29;20036;-79
2023/12/29 01:52:00;;;;;;;16.85;5.40;;;9.30;99.90;;;;;;4885111;29;20055;-79
2023/12/29 01:54:30;;;;;;;18.05;5.05;;;9.30;99.90;;;;;;4911847;29;20037;-79
2023/12/29 01:56:59;;;;;;;17.50;4.57;;;9.20;99.90;;;;;;4918341;29;20405;-79
2023/12/29 01:59:26;;;;;;;19.20;5.03;;;9.20;99.90;;;;;;4918503;29;20047;-77
2023/12/29 02:01:54;;;;;;;17.88;4.80;;;9.20;99.90;;;;;;4901989;29;20047;-77
2023/12/29 02:04:20;;;;;;;16.15;4.40;;;9.20;99.90;;;;;;4917318;29;20087;-78
2023/12/29 02:06:45;;;;;;;14.45;4.43;;;9.30;99.90;;;;;;4912094;29;20114;-78
2023/12/29 02:09:16;;;;;;;15.35;4.35;;;9.30;99.90;;;;;;4937339;29;20450;-77
2023/12/29 02:11:42;;;;;;;15.38;4.63;;;9.40;99.90;;;;;;4918257;29;20044;-78
2023/12/29 02:14:07;;;;;;;13.07;3.38;;;9.40;99.90;;;;;;4898970;29;20411;-79
2023/12/29 02:16:45;;;;;;;13.70;3.53;;;9.40;99.90;;;;;;4899669;29;20428;-78
2023/12/29 02:19:25;;;;;;;13.02;3.78;;;9.40;99.90;;;;;;4906466;29;20032;-78
2023/12/29 02:21:51;;;;;;;15.23;4.03;;;9.40;99.90;;;;;;4905422;29;20076;-78
2023/12/29 02:24:16;;;;;;;14.90;3.80;;;9.40;99.90;;;;;;4895676;29;20535;-78
2023/12/29 02:26:47;;;;;;;14.32;4.28;;;9.40;99.90;;;;;;4898879;29;20087;-78
2023/12/29 02:29:17;;;;;;;12.55;4.00;;;9.50;99.90;;;;;;4903941;29;20040;-78
2023/12/29 02:31:45;;;;;;;13.27;4.03;;;9.50;99.90;;;;;;4924537;29;20046;-78
2023/12/29 02:34:14;;;;;;;14.60;3.92;;;9.50;99.90;;;;;;4929545;29;20070;-78
2023/12/29 02:36:42;;;;;;;15.50;4.07;;;9.50;99.90;;;;;;4923633;29;20347;-78
2023/12/29 02:39:10;;;;;;;14.82;4.20;;;9.50;99.90;;;;;;4921701;29;20036;-77
2023/12/29 02:41:38;;;;;;;16.83;4.85;;;9.50;99.90;;;;;;4898820;29;20431;-77
2023/12/29 02:44:03;;;;;;;15.10;4.05;;;9.50;99.90;;;;;;4890044;29;20036;-78
2023/12/29 02:46:29;;;;;;;14.15;4.10;;;9.40;99.90;;;;;;4935454;29;20046;-78
2023/12/29 02:48:55;;;;;;;14.30;3.95;;;9.50;99.90;;;;;;4940398;29;20053;-77
2023/12/29 02:51:20;;;;;;;15.13;4.25;;;9.50;99.90;;;;;;4907588;29;20094;-77
2023/12/29 02:53:47;;;;;;;14.50;4.47;;;9.60;99.90;;;;;;4908284;29;20047;-78
2023/12/29 02:56:12;;;;;;;17.35;4.90;;;9.50;99.90;;;;;;4915673;29;20047;-78
2023/12/29 02:58:38;;;;;;;17.23;4.70;;;9.50;99.90;;;;;;4931697;29;20031;-77
2023/12/29 03:01:03;;;;;;;17.75;4.30;;;9.50;99.90;;;;;;4934988;29;20071;-77
2023/12/29 03:03:29;;;;;;;16.42;4.50;;;9.40;99.90;;;;;;4913328;29;20036;-77
2023/12/29 03:05:54;;;;;;;13.18;5.03;;;9.30;99.90;;;;;;4904915;29;20099;-77
2023/12/29 03:08:20;;;;;;;15.50;4.88;;;9.30;99.90;;;;;;4928702;29;20046;-78
2023/12/29 03:10:45;;;;;;;15.93;4.75;;;9.20;99.90;;;;;;4935620;29;20043;-78
2023/12/29 03:13:11;;;;;;;13.68;4.20;;;9.10;99.90;;;;;;4885906;29;20452;-77
2023/12/29 03:15:37;;;;;;;16.90;4.85;;;9.10;99.90;;;;;;4904617;29;20036;-77
2023/12/29 03:18:02;;;;;;;14.10;5.30;;;9.00;99.90;;;;;;4916025;29;20310;-77
2023/12/29 03:20:28;;;;;;;17.92;4.63;;;9.00;99.90;;;;;;4939325;29;20031;-77
2023/12/29 03:22:55;;;;;;;15.77;4.82;;;8.90;99.90;;;;;;4908449;29;20032;-77
2023/12/29 03:25:20;;;;;;;16.35;4.32;;;8.90;99.90;;;;;;4920435;29;20043;-77
2023/12/29 03:27:46;;;;;;;11.82;3.88;;;8.90;99.90;;;;;;4921211;29;20458;-79
2023/12/29 03:30:12;;;;;;;10.40;3.88;;;8.90;99.90;;;;;;4925536;29;20146;-78
2023/12/29 03:32:37;;;;;;;13.00;4.28;;;9.00;99.90;;;;;;4908247;29;20063;-78
2023/12/29 03:35:04;;;;;;;12.40;3.92;;;9.00;99.90;;;;;;4939019;29;20053;-77
2023/12/29 03:37:29;;;;;;;18.38;4.60;;;8.90;99.90;;;;;;4938971;29;20039;-77
2023/12/29 03:39:55;;;;;;;15.85;4.60;;;9.00;99.90;;;;;;4913151;29;20038;-78
2023/12/29 03:42:20;;;;;;;17.67;5.22;;;8.90;99.90;;;;;;4920168;29;20438;-78
2023/12/29 03:44:46;;;;;;;16.33;4.32;;;8.90;99.90;;;;;;4930376;29;20474;-78
2023/12/29 03:47:11;;;;;;;15.68;4.63;;;9.00;99.90;;;;;;4939089;28;20466;-77
2023/12/29 03:49:37;;;;;;;15.30;4.90;;;9.00;99.90;;;;;;4932925;29;20418;-77
2023/12/29 03:52:03;;;;;;;16.95;5.10;;;9.10;99.90;;;;;;4908396;29;20043;-78
2023/12/29 03:54:28;;;;;;;17.60;5.57;;;9.20;99.90;;;;;;4900474;29;20060;-78
2023/12/29 03:56:54;;;;;;;20.48;5.55;;;9.20;99.90;;;;;;4901273;29;20075;-78
2023/12/29 03:59:19;;;;;;;20.27;5.90;;;9.20;99.90;;;;;;4930669;29;20107;-78
2023/12/29 04:01:45;;;;;;;23.25;6.30;;;9.20;99.90;;;;;;4912470;29;20119;-78
2023/12/29 04:04:10;;;;;;;24.60;6.80;;;9.20;99.90;;;;;;4919110;29;20142;-78
2023/12/29 04:06:36;;;;;;;25.63;7.60;;;9.10;99.90;;;;;;4904034;29;20044;-78
2023/12/29 04:09:02;;;;;;;33.55;7.55;;;9.00;99.90;;;;;;4919711;29;20321;-78
2023/12/29 04:11:27;;;;;;;24.85;6.80;;;8.90;99.90;;;;;;4926695;29;20039;-78
2023/12/29 04:13:53;;;;;;;23.35;5.65;;;8.90;99.90;;;;;;4922641;29;20118;-78
2023/12/29 04:16:18;;;;;;;25.13;5.43;;;8.90;99.90;;;;;;4923155;29;20046;-78
2023/12/29 04:18:44;;;;;;;21.88;5.53;;;8.80;99.90;;;;;;4934411;29;20046;-79
2023/12/29 04:21:14;;;;;;;23.23;6.03;;;8.80;99.90;;;;;;4905943;29;20087;-78
2023/12/29 04:23:41;;;;;;;21.58;5.90;;;8.80;99.90;;;;;;4934005;29;20070;-78
2023/12/29 04:26:07;;;;;;;20.10;4.78;;;8.70;99.90;;;;;;4938272;29;20054;-78
2023/12/29 04:28:33;;;;;;;22.30;4.68;;;8.70;99.90;;;;;;4938115;29;20446;-78
2023/12/29 04:30:58;;;;;;;24.48;4.75;;;8.70;99.90;;;;;;4934695;29;20135;-78
2023/12/29 04:33:24;;;;;;;21.55;5.72;;;8.60;99.90;;;;;;4918487;29;20055;-78
2023/12/29 04:35:49;;;;;;;21.85;5.60;;;8.60;99.90;;;;;;4929379;29;20099;-78
2023/12/29 04:38:17;;;;;;;24.92;5.28;;;8.60;99.90;;;;;;4938509;29;20043;-78
2023/12/29 04:40:43;;;;;;;19.15;4.97;;;8.60;99.90;;;;;;4936767;29;20039;-78
2023/12/29 04:43:08;;;;;;;25.20;5.47;;;8.60;99.90;;;;;;4918487;29;20107;-78
2023/12/29 04:45:34;;;;;;;20.83;4.70;;;8.60;99.90;;;;;;4918804;29;20123;-79
2023/12/29 04:47:59;;;;;;;19.98;4.70;;;8.60;99.90;;;;;;4929461;29;20039;-78
2023/12/29 04:50:25;;;;;;;20.25;5.15;;;8.60;99.90;;;;;;4924756;29;20040;-78
2023/12/29 04:52:50;;;;;;;22.00;5.40;;;8.60;99.90;;;;;;4901556;29;20040;-78
2023/12/29 04:55:16;;;;;;;22.85;5.05;;;8.60;99.90;;;;;;4884131;29;20036;-78
2023/12/29 04:57:42;;;;;;;23.38;5.18;;;8.50;99.90;;;;;;4900112;29;20048;-78
2023/12/29 05:00:08;;;;;;;23.95;5.90;;;8.50;99.90;;;;;;4906431;29;20039;-78
2023/12/29 05:02:33;;;;;;;22.13;5.55;;;8.50;99.90;;;;;;4904648;29;20508;-78
2023/12/29 05:04:59;;;;;;;21.23;5.82;;;8.50;99.90;;;;;;4896864;29;20047;-78
2023/12/29 05:07:24;;;;;;;26.45;5.68;;;8.50;99.90;;;;;;4934761;29;20057;-78
2023/12/29 05:09:50;;;;;;;24.20;5.43;;;8.50;99.90;;;;;;4938157;29;20098;-78
2023/12/29 05:12:16;;;;;;;24.27;5.40;;;8.50;99.90;;;;;;4922510;29;20622;-77
2023/12/29 05:14:41;;;;;;;25.05;6.13;;;8.50;99.90;;;;;;4918338;29;20043;-78
2023/12/29 05:17:08;;;;;;;25.55;6.25;;;8.50;99.90;;;;;;4926819;29;20478;-77
2023/12/29 05:19:34;;;;;;;23.55;5.63;;;8.50;99.90;;;;;;4918910;29;20045;-78
2023/12/29 05:21:59;;;;;;;22.15;4.97;;;8.60;99.90;;;;;;4918124;29;20417;-78
2023/12/29 05:24:25;;;;;;;24.73;5.38;;;8.60;99.90;;;;;;4899536;29;20043;-77
2023/12/29 05:26:50;;;;;;;22.00;5.90;;;8.60;99.90;;;;;;4913161;29;20051;-78
2023/12/29 05:29:16;;;;;;;26.42;6.13;;;8.60;99.90;;;;;;4922355;29;20048;-78
2023/12/29 05:31:41;;;;;;;19.58;5.20;;;8.60;99.90;;;;;;4929577;29;20225;-78
2023/12/29 05:34:07;;;;;;;25.67;6.38;;;8.60;99.90;;;;;;4929535;29;20046;-77
2023/12/29 05:36:36;;;;;;;23.05;5.43;;;8.60;99.90;;;;;;4921549;29;20049;-77
2023/12/29 05:39:02;;;;;;;24.70;5.85;;;8.60;99.90;;;;;;4921001;29;20568;-78
2023/12/29 05:41:27;;;;;;;25.08;6.05;;;8.70;99.90;;;;;;4889830;29;20091;-78
2023/12/29 05:43:53;;;;;;;26.70;5.28;;;8.70;99.90;;;;;;4899772;29;20044;-77
2023/12/29 05:46:18;;;;;;;24.30;6.07;;;8.80;99.90;;;;;;4884158;29;20040;-77
2023/12/29 05:48:46;;;;;;;27.50;6.32;;;8.80;99.90;;;;;;4912096;29;20476;-78
2023/12/29 05:51:13;;;;;;;25.23;5.82;;;8.80;99.90;;;;;;4914682;29;20039;-77
2023/12/29 05:53:43;;;;;;;26.35;6.15;;;8.80;99.90;;;;;;4917967;29;20039;-78
2023/12/29 05:56:12;;;;;;;29.38;6.38;;;8.80;99.90;;;;;;4918422;29;20054;-78
2023/12/29 05:58:37;;;;;;;25.85;6.43;;;8.90;99.90;;;;;;4918105;29;20039;-77
2023/12/29 06:01:03;;;;;;;27.65;6.07;;;8.90;99.90;;;;;;4931091;29;20039;-77
2023/12/29 06:03:28;;;;;;;25.35;6.20;;;8.90;99.90;;;;;;4909440;29;20035;-78
2023/12/29 06:05:54;;;;;;;29.70;5.93;;;9.00;99.90;;;;;;4932534;29;20543;-78
2023/12/29 06:08:20;;;;;;;29.67;6.55;;;9.00;99.90;;;;;;4936100;29;20418;-78
2023/12/29 06:10:45;;;;;;;27.55;6.43;;;9.00;99.90;;;;;;4941104;29;20090;-78
2023/12/29 06:13:11;;;;;;;27.75;5.55;;;9.00;99.90;;;;;;4903767;29;20053;-77
2023/12/29 06:15:36;;;;;;;27.02;6.32;;;9.00;99.90;;;;;;4928753;29;20039;-78
2023/12/29 06:18:02;;;;;;;30.95;7.25;;;9.00;99.90;;;;;;4933585;29;20047;-78
2023/12/29 06:20:28;;;;;;;29.23;7.00;;;9.00;99.90;;;;;;4924812;29;20168;-78
2023/12/29 06:22:54;;;;;;;34.47;7.60;;;9.10;99.90;;;;;;4924030;29;20043;-77
2023/12/29 06:25:20;;;;;;;33.00;7.05;;;9.10;99.90;;;;;;4927749;29;20039;-78
2023/12/29 06:27:46;;;;;;;27.13;6.97;;;9.00;99.90;;;;;;4932714;29;20130;-78
2023/12/29 06:30:11;;;;;;;30.88;6.80;;;9.00;99.90;;;;;;4940698;29;20035;-78
2023/12/29 06:32:37;;;;;;;30.30;7.03;;;9.00;99.90;;;;;;4908764;29;20043;-78
2023/12/29 06:35:04;;;;;;;33.15;6.45;;;9.00;99.90;;;;;;4912890;29;20075;-78
2023/12/29 06:37:29;;;;;;;32.22;7.25;;;9.00;99.90;;;;;;4902532;29;20083;-78
2023/12/29 06:39:55;;;;;;;36.47;8.00;;;9.00;99.90;;;;;;4923673;29;20096;-78
2023/12/29 06:42:20;;;;;;;34.90;7.18;;;9.00;99.90;;;;;;4910629;29;20504;-78
2023/12/29 06:44:46;;;;;;;33.38;6.97;;;9.00;99.90;;;;;;4902854;29;20048;-78
2023/12/29 06:47:12;;;;;;;28.95;7.15;;;9.00;99.90;;;;;;4902643;29;20539;-77
2023/12/29 06:49:39;;;;;;;37.13;7.40;;;9.00;99.90;;;;;;4902156;29;20126;-78
2023/12/29 06:52:04;;;;;;;37.80;7.43;;;9.00;99.90;;;;;;4907466;29;20043;-78
2023/12/29 06:54:30;;;;;;;35.90;7.72;;;8.90;99.90;;;;;;4922649;29;20051;-78
2023/12/29 06:56:56;;;;;;;35.90;7.05;;;8.90;99.90;;;;;;4910305;29;20047;-78
2023/12/29 06:59:22;;;;;;;39.72;7.38;;;8.90;99.90;;;;;;4906028;29;20051;-78
2023/12/29 07:01:48;;;;;;;34.95;7.40;;;8.80;99.90;;;;;;4918111;29;20072;-78
2023/12/29 07:04:15;;;;;;;39.03;7.85;;;8.80;99.90;;;;;;4908429;29;20075;-79
2023/12/29 07:06:41;;;;;;;34.22;7.75;;;8.80;99.90;;;;;;4907093;29;20039;-78
2023/12/29 07:09:08;;;;;;;39.15;7.57;;;8.80;99.90;;;;;;4920219;29;20518;-78
2023/12/29 07:11:34;;;;;;;34.10;7.22;;;8.80;99.90;;;;;;4927567;29;20043;-78
2023/12/29 07:14:00;;;;;;;38.67;7.10;;;8.70;99.90;;;;;;4921908;29;20102;-78
2023/12/29 07:16:25;;;;;;;34.00;7.03;;;8.70;99.90;;;;;;4917946;29;20038;-78
2023/12/29 07:18:51;;;;;;;31.52;6.95;;;8.70;99.90;;;;;;4916105;29;20035;-78
2023/12/29 07:21:17;;;;;;;36.47;7.55;;;8.70;99.90;;;;;;4934665;29;20564;-78
2023/12/29 07:23:43;;;;;;;40.03;8.63;;;8.80;99.90;;;;;;4913889;29;20063;-78
2023/12/29 07:26:09;;;;;;;34.30;8.38;;;8.70;99.90;;;;;;4905137;29;20431;-78
2023/12/29 07:28:35;;;;;;;41.75;7.63;;;8.70;99.90;;;;;;4886435;29;20050;-78
2023/12/29 07:31:01;;;;;;;30.35;7.30;;;8.70;99.90;;;;;;4887088;29;20035;-78
2023/12/29 07:33:26;;;;;;;29.40;7.70;;;8.70;99.90;;;;;;4921681;29;20071;-78
2023/12/29 07:35:52;;;;;;;29.88;7.45;;;8.70;99.90;;;;;;4920029;29;20126;-78
2023/12/29 07:38:18;;;;;;;33.00;8.07;;;8.70;99.90;;;;;;4920684;29;20040;-78
2023/12/29 07:40:43;;;;;;;31.15;7.40;;;8.70;99.90;;;;;;4920336;29;20067;-78
2023/12/29 07:43:09;;;;;;;31.40;6.78;;;8.70;99.90;;;;;;4901995;29;20046;-78
2023/12/29 07:45:35;;;;;;;26.45;7.03;;;8.70;99.90;;;;;;4920594;29;20051;-78
2023/12/29 07:48:03;;;;;;;28.23;7.13;;;8.80;99.90;;;;;;4931660;29;20054;-78
2023/12/29 07:50:28;;;;;;;30.35;7.03;;;8.80;99.90;;;;;;4923206;29;20508;-78
2023/12/29 07:52:54;;;;;;;34.33;7.97;;;8.80;99.90;;;;;;4909108;29;20032;-78
2023/12/29 07:55:19;;;;;;;26.88;6.43;;;8.80;99.90;;;;;;4900969;29;20095;-77
2023/12/29 07:57:46;;;;;;;26.52;6.15;;;8.70;99.90;;;;;;4930242;29;20035;-78
2023/12/29 08:00:14;;;;;;;26.85;6.65;;;8.80;99.90;;;;;;4938768;23;20520;-75
2023/12/29 08:02:40;;;;;;;24.52;6.05;;;8.80;99.90;;;;;;4904542;29;20055;-75
2023/12/29 08:05:08;;;;;;;31.30;6.97;;;8.80;99.90;;;;;;4881962;29;20048;-75
2023/12/29 08:07:40;;;;;;;25.45;5.93;;;8.80;99.90;;;;;;4883039;29;20518;-75
2023/12/29 08:10:06;;;;;;;31.30;6.97;;;8.80;99.90;;;;;;4892201;29;20040;-74
2023/12/29 08:12:35;;;;;;;29.05;6.22;;;8.90;99.90;;;;;;4925315;29;20174;-75
2023/12/29 08:15:02;;;;;;;25.13;6.85;;;8.90;99.90;;;;;;4921506;29;20141;-76
2023/12/29 08:17:29;;;;;;;21.70;6.25;;;8.90;99.90;;;;;;4904708;29;20183;-75
2023/12/29 08:19:55;;;;;;;25.52;6.35;;;8.90;99.90;;;;;;4903070;29;20525;-75
2023/12/29 08:22:21;;;;;;;22.92;6.10;;;8.90;99.90;;;;;;4890590;29;20044;-75
2023/12/29 08:24:46;;;;;;;24.00;6.57;;;9.00;99.90;;;;;;4906656;29;20050;-75
2023/12/29 08:27:13;;;;;;;26.50;5.97;;;9.00;99.90;;;;;;4902403;29;20410;-75
2023/12/29 08:29:39;;;;;;;22.65;6.40;;;9.00;99.90;;;;;;4902714;29;20051;-76
2023/12/29 08:32:05;;;;;;;24.00;6.40;;;9.00;99.90;;;;;;4901087;29;20045;-75
2023/12/29 08:34:31;;;;;;;23.75;5.50;;;9.00;99.90;;;;;;4909366;29;20050;-73
2023/12/29 08:36:56;;;;;;;19.80;4.90;;;9.00;99.90;;;;;;4913587;29;20035;-76
2023/12/29 08:39:25;;;;;;;19.95;5.22;;;8.90;99.90;;;;;;4911598;29;20044;-76
2023/12/29 08:41:53;;;;;;;20.45;5.60;;;9.10;99.90;;;;;;4910082;29;20449;-76
2023/12/29 08:44:19;;;;;;;22.92;5.60;;;9.00;99.90;;;;;;4902162;29;20443;-75
2023/12/29 08:46:47;;;;;;;22.35;5.95;;;9.10;99.90;;;;;;4902361;29;20047;-76
2023/12/29 08:49:12;;;;;;;20.35;4.95;;;9.10;99.90;;;;;;4902212;29;20050;-74
2023/12/29 08:51:38;;;;;;;21.08;5.50;;;9.10;99.90;;;;;;4894566;29;20048;-75
2023/12/29 08:54:03;;;;;;;18.38;5.32;;;9.10;99.90;;;;;;4880034;29;20060;-76
2023/12/29 08:56:29;;;;;;;22.48;5.13;;;9.20;99.90;;;;;;4899067;29;20039;-74
2023/12/29 08:58:55;;;;;;;18.10;5.15;;;9.20;99.90;;;;;;4918105;29;20036;-76
2023/12/29 09:01:31;;;;;;;16.20;5.03;;;9.20;99.90;;;;;;4901846;29;20067;-77
2023/12/29 09:04:12;;;;;;;17.92;5.20;;;9.30;99.90;;;;;;4890573;29;20102;-76
2023/12/29 09:06:43;;;;;;;16.45;4.85;;;9.30;99.90;;;;;;4902502;29;20058;-76
2023/12/29 09:09:15;;;;;;;15.70;4.70;;;9.40;99.90;;;;;;4918919;29;20126;-76
2023/12/29 09:11:44;;;;;;;18.00;5.65;;;9.30;99.90;;;;;;4902245;29;20047;-76
2023/12/29 09:14:10;;;;;;;15.90;5.30;;;9.40;99.90;;;;;;4901781;29;20046;-76
2023/12/29 09:16:36;;;;;;;13.85;4.43;;;9.30;99.90;;;;;;4909541;29;20394;-75
2023/12/29 09:19:06;;;;;;;13.35;5.20;;;9.30;99.90;;;;;;4906223;29;20039;-76
2023/12/29 09:21:37;;;;;;;14.75;5.68;;;9.40;99.90;;;;;;4901941;29;20043;-76
2023/12/29 09:24:04;;;;;;;15.98;5.32;;;9.40;99.90;;;;;;4901770;29;20078;-76
2023/12/29 09:26:30;;;;;;;19.73;5.47;;;9.40;99.90;;;;;;4902045;29;20047;-75
2023/12/29 09:28:55;;;;;;;15.05;4.90;;;9.40;99.90;;;;;;4904135;29;20513;-75
2023/12/29 09:31:24;;;;;;;12.73;5.20;;;9.40;99.90;;;;;;4910249;29;20039;-76
2023/12/29 09:33:49;;;;;;;14.15;5.13;;;9.50;99.90;;;;;;4901542;29;20127;-75
2023/12/29 09:36:18;;;;;;;12.98;5.18;;;9.50;99.90;;;;;;4900725;29;20123;-76
2023/12/29 09:38:46;;;;;;;12.10;4.03;;;9.40;99.90;;;;;;4911047;29;20317;-76
2023/12/29 09:41:16;;;;;;;14.48;4.00;;;9.40;99.90;;;;;;4920972;29;20516;-76
2023/12/29 09:43:42;;;;;;;13.20;4.10;;;9.40;99.90;;;;;;4920489;29;20494;-76
2023/12/29 09:46:13;;;;;;;11.32;3.88;;;9.40;99.90;;;;;;4912427;29;20176;-76
2023/12/29 09:48:41;;;;;;;10.63;3.95;;;9.50;99.90;;;;;;4890381;29;20115;-76
2023/12/29 09:51:10;;;;;;;8.98;4.18;;;9.40;99.90;;;;;;4897764;29;20039;-76
2023/12/29 09:53:39;;;;;;;13.30;4.07;;;9.40;99.90;;;;;;4871786;29;20435;-76
2023/12/29 09:56:09;;;;;;;13.55;5.00;;;9.30;99.90;;;;;;4864235;29;20049;-76
2023/12/29 09:58:43;;;;;;;12.63;3.83;;;9.30;99.90;;;;;;4865121;29;20055;-76
2023/12/29 10:01:12;;;;;;;10.68;3.45;;;9.30;99.90;;;;;;4880837;29;20044;-75
2023/12/29 10:03:40;;;;;;;11.10;2.75;;;9.20;99.90;;;;;;4886638;29;20471;-75
2023/12/29 10:06:09;;;;;;;10.00;3.08;;;9.00;99.90;;;;;;4886887;29;20035;-74
2023/12/29 10:08:38;;;;;;;10.15;3.03;;;8.80;99.90;;;;;;4878688;29;20040;-75
2023/12/29 10:11:05;;;;;;;10.52;2.60;;;8.70;99.90;;;;;;4891672;29;20199;-75
2023/12/29 10:13:33;;;;;;;7.43;2.33;;;8.50;99.90;;;;;;4888953;29;20123;-75
2023/12/29 10:16:30;;;;;;;9.38;2.35;;;8.40;99.90;;;;;;4888523;29;20036;-75
2023/12/29 10:19:18;;;;;;;10.60;2.60;;;8.30;99.90;;;;;;4881518;29;20066;-75
2023/12/29 10:22:02;;;;;;;12.70;2.15;;;8.10;99.90;;;;;;4863942;29;20055;-75
2023/12/29 10:24:30;;;;;;;11.02;2.17;;;8.00;99.90;;;;;;4863733;29;20045;-76
2023/12/29 10:26:56;;;;;;;11.80;2.47;;;7.80;99.90;;;;;;4876222;29;20083;-75
2023/12/29 10:29:22;;;;;;;9.75;2.08;;;7.70;99.90;;;;;;4882308;29;20474;-76
2023/12/29 10:31:48;;;;;;;9.15;2.20;;;7.60;99.90;;;;;;4885664;29;20043;-75
2023/12/29 10:34:28;;;;;;;9.98;2.78;;;7.50;99.90;;;;;;4888852;29;20131;-74
2023/12/29 10:37:06;;;;;;;9.20;2.35;;;7.60;99.90;;;;;;4873070;29;20044;-75
2023/12/29 10:39:32;;;;;;;9.65;3.33;;;7.60;99.90;;;;;;4889818;29;20046;-74
2023/12/29 10:42:08;;;;;;;11.70;3.85;;;7.70;99.90;;;;;;4902918;29;20131;-74
2023/12/29 10:44:38;;;;;;;10.30;3.45;;;7.80;99.90;;;;;;4887699;29;20044;-74
2023/12/29 10:47:10;;;;;;;11.82;3.47;;;8.00;99.90;;;;;;4889336;29;20032;-75
2023/12/29 10:49:37;;;;;;;10.18;3.55;;;8.10;99.90;;;;;;4882934;29;20518;-74
2023/12/29 10:52:16;;;;;;;17.13;3.53;;;8.20;99.90;;;;;;4895651;29;20134;-75
2023/12/29 10:54:42;;;;;;;18.88;3.88;;;8.20;99.90;;;;;;4887308;29;20032;-76
2023/12/29 10:57:11;;;;;;;13.45;4.07;;;8.30;99.90;;;;;;4890403;29;20123;-74
2023/12/29 10:59:37;;;;;;;17.25;3.78;;;8.30;99.90;;;;;;4902591;29;20028;-75
2023/12/29 11:02:03;;;;;;;15.55;3.70;;;8.30;99.90;;;;;;4890410;29;20067;-75
2023/12/29 11:04:29;;;;;;;16.05;3.92;;;8.40;99.90;;;;;;4888235;29;20067;-74
2023/12/29 11:06:54;;;;;;;19.35;4.07;;;8.50;99.90;;;;;;4898530;29;20067;-74
2023/12/29 11:09:31;;;;;;;17.65;4.10;;;8.50;99.90;;;;;;4903343;29;20048;-76
2023/12/29 11:12:05;;;;;;;17.77;4.13;;;8.70;99.90;;;;;;4907757;29;20039;-74
2023/12/29 11:14:32;;;;;;;21.10;4.57;;;8.70;99.90;;;;;;4868622;29;20131;-75
2023/12/29 11:17:00;;;;;;;18.52;4.50;;;8.60;99.90;;;;;;4888998;29;20390;-75
2023/12/29 11:19:26;;;;;;;17.73;4.78;;;8.70;99.90;;;;;;4892477;29;20040;-75
2023/12/29 11:21:54;;;;;;;20.50;4.95;;;8.70;99.90;;;;;;4895234;29;20478;-75
2023/12/29 11:24:23;;;;;;;15.77;5.00;;;8.80;99.90;;;;;;4903897;29;20047;-74
2023/12/29 11:26:50;;;;;;;18.95;4.97;;;8.90;99.90;;;;;;4881750;29;20040;-74
2023/12/29 11:29:18;;;;;;;18.45;4.85;;;8.90;99.90;;;;;;4876511;29;20051;-75
2023/12/29 11:31:49;;;;;;;17.45;4.13;;;9.00;99.90;;;;;;4883731;29;20063;-75
2023/12/29 11:34:28;;;;;;;20.67;4.50;;;9.00;99.90;;;;;;4887890;29;20043;-75
2023/12/29 11:37:11;;;;;;;21.00;5.00;;;9.10;99.90;;;;;;4903831;29;20044;-75
2023/12/29 11:39:39;;;;;;;;;;;9.20;99.90;;;;;;4914597;29;20047;-74
2023/12/29 11:42:36;;;;;;;19.02;4.20;;;9.10;99.90;;;;;;4892801;29;19923;-79
2023/12/29 11:45:35;;;;;;;21.00;4.03;;;9.20;99.90;;;;;;4881252;29;20041;-76
2023/12/29 11:48:04;;;;;;;23.42;5.05;;;9.30;99.90;;;;;;4885956;29;20045;-76
2023/12/29 11:50:40;;;;;;;23.13;5.10;;;9.40;99.90;;;;;;4867972;29;20067;-76
2023/12/29 11:53:07;;;;;;;24.80;4.78;;;9.40;99.90;;;;;;4873303;29;20135;-76
2023/12/29 11:55:37;;;;;;;22.17;4.43;;;9.40;99.90;;;;;;4884513;29;20427;-76
2023/12/29 11:58:26;;;;;;;23.10;5.18;;;9.50;99.90;;;;;;4878345;29;20055;-76
2023/12/29 12:00:51;;;;;;;17.67;4.28;;;9.60;99.90;;;;;;4888386;29;20126;-76
2023/12/29 12:03:28;;;;;;;17.95;4.05;;;9.60;99.90;;;;;;4883684;29;20127;-76
2023/12/29 12:05:57;;;;;;;17.90;3.45;;;9.60;99.90;;;;;;4884276;29;20099;-76
2023/12/29 12:08:41;;;;;;;18.75;3.38;;;9.60;99.90;;;;;;4886382;29;20388;-76
2023/12/29 12:11:39;;;;;;;18.10;3.60;;;9.60;99.90;;;;;;4884726;29;20100;-77
2023/12/29 12:14:05;;;;;;;17.52;3.88;;;9.50;99.90;;;;;;4865739;29;20048;-76
2023/12/29 12:16:45;;;;;;;16.90;4.00;;;9.50;99.90;;;;;;4891499;29;20040;-76
2023/12/29 12:19:12;;;;;;;16.58;3.40;;;9.50;99.90;;;;;;4888559;29;20042;-76
2023/12/29 12:21:38;;;;;;;15.13;3.30;;;9.50;99.90;;;;;;4893631;29;20074;-76
2023/12/29 12:24:04;;;;;;;19.80;4.22;;;9.50;99.90;;;;;;4896163;29;20043;-76
2023/12/29 12:26:37;;;;;;;21.92;4.70;;;9.60;99.90;;;;;;4897396;29;20042;-76
2023/12/29 12:29:04;;;;;;;19.42;5.07;;;9.70;99.90;;;;;;4883863;29;20040;-76
2023/12/29 12:31:29;;;;;;;16.65;3.63;;;9.70;99.90;;;;;;4899882;29;20052;-76
2023/12/29 12:34:00;;;;;;;14.75;4.05;;;9.80;99.90;;;;;;4884031;29;20517;-75
2023/12/29 12:36:26;;;;;;;13.88;3.63;;;9.80;99.90;;;;;;4867202;29;20041;-77
2023/12/29 12:38:58;;;;;;;12.18;3.20;;;9.70;99.90;;;;;;4880873;29;20083;-76
2023/12/29 12:41:28;;;;;;;17.15;3.28;;;9.70;99.90;;;;;;4865709;29;20048;-76
2023/12/29 12:44:11;;;;;;;16.02;3.45;;;9.70;99.90;;;;;;4865045;29;20099;-76
2023/12/29 12:46:52;;;;;;;14.75;3.10;;;9.70;99.90;;;;;;4865572;29;20381;-76
2023/12/29 12:49:19;;;;;;;13.27;3.45;;;9.70;99.90;;;;;;4865325;29;20099;-77